sensor_id;sensor_type;location;lat;lon;timestamp;pressure;altitude;pressure_sealevel;temperature;humidity
35519;BME280;21627;48.216;16.482;2022-12-18T00:01:25;101370.50;;;-2.35;100.00
35519;BME280;21627;48.216;16.482;2022-12-18T00:03:54;101368.75;;;-2.36;100.00
35519;BME280;21627;48.216;16.482;2022-12-18T00:06:23;101361.72;;;-2.51;100.00
35519;BME280;21627;48.216;16.482;2022-12-18T00:08:51;101375.47;;;-2.47;100.00
35519;BME280;21627;48.216;16.482;2022-12-18T00:11:22;101356.94;;;-2.58;100.00
35519;BME280;21627;48.216;16.482;2022-12-18T00:13:50;101376.53;;;-2.55;100.00
35519;BME280;21627;48.216;16.482;2022-12-18T00:16:20;101377.97;;;-2.59;100.00
35519;BME280;21627;48.216;16.482;2022-12-18T00:18:50;101373.59;;;-2.72;100.00
35519;BME280;21627;48.216;16.482;2022-12-18T00:21:18;101375.84;;;-2.75;100.00
35519;BME280;21627;48.216;16.482;2022-12-18T00:23:47;101382.16;;;-2.70;100.00
35519;BME280;21627;48.216;16.482;2022-12-18T00:26:17;101387.75;;;-2.74;100.00
35519;BME280;21627;48.216;16.482;2022-12-18T00:28:46;101386.28;;;-2.82;100.00
35519;BME280;21627;48.216;16.482;2022-12-18T00:31:17;101399.66;;;-2.83;100.00
35519;BME280;21627;48.216;16.482;2022-12-18T00:33:45;101379.97;;;-2.97;100.00
35519;BME280;21627;48.216;16.482;2022-12-18T00:36:27;101375.81;;;-2.97;100.00
35519;BME280;21627;48.216;16.482;2022-12-18T00:38:57;101396.28;;;-2.94;100.00
35519;BME280;21627;48.216;16.482;2022-12-18T00:41:24;101400.56;;;-2.93;100.00
35519;BME280;21627;48.216;16.482;2022-12-18T00:44:13;101390.47;;;-3.03;100.00
35519;BME280;21627;48.216;16.482;2022-12-18T00:46:41;101388.59;;;-3.06;100.00
35519;BME280;21627;48.216;16.482;2022-12-18T00:49:12;101393.41;;;-3.09;100.00
35519;BME280;21627;48.216;16.482;2022-12-18T00:51:39;101405.56;;;-3.05;100.00
35519;BME280;21627;48.216;16.482;2022-12-18T00:54:07;101409.69;;;-3.05;100.00
35519;BME280;21627;48.216;16.482;2022-12-18T00:56:38;101397.59;;;-3.19;100.00
35519;BME280;21627;48.216;16.482;2022-12-18T00:59:15;101410.75;;;-3.13;100.00
35519;BME280;21627;48.216;16.482;2022-12-18T01:01:44;101412.88;;;-3.18;100.00
35519;BME280;21627;48.216;16.482;2022-12-18T01:04:11;101400.25;;;-3.28;100.00
35519;BME280;21627;48.216;16.482;2022-12-18T01:06:38;101422.66;;;-3.22;100.00
35519;BME280;21627;48.216;16.482;2022-12-18T01:09:06;101422.28;;;-3.27;100.00
35519;BME280;21627;48.216;16.482;2022-12-18T01:11:33;101412.03;;;-3.39;100.00
35519;BME280;21627;48.216;16.482;2022-12-18T01:14:00;101430.34;;;-3.31;100.00
35519;BME280;21627;48.216;16.482;2022-12-18T01:16:27;101419.38;;;-3.32;100.00
35519;BME280;21627;48.216;16.482;2022-12-18T01:18:55;101405.72;;;-3.44;100.00
35519;BME280;21627;48.216;16.482;2022-12-18T01:21:23;101427.97;;;-3.40;100.00
35519;BME280;21627;48.216;16.482;2022-12-18T01:23:53;101432.66;;;-3.44;100.00
35519;BME280;21627;48.216;16.482;2022-12-18T01:26:20;101415.44;;;-3.49;100.00
35519;BME280;21627;48.216;16.482;2022-12-18T01:28:48;101422.91;;;-3.50;100.00
35519;BME280;21627;48.216;16.482;2022-12-18T01:31:25;101430.22;;;-3.53;100.00
35519;BME280;21627;48.216;16.482;2022-12-18T01:33:53;101409.50;;;-3.70;100.00
35519;BME280;21627;48.216;16.482;2022-12-18T01:36:22;101432.75;;;-3.53;100.00
35519;BME280;21627;48.216;16.482;2022-12-18T01:38:50;101424.53;;;-3.61;100.00
35519;BME280;21627;48.216;16.482;2022-12-18T01:41:24;101443.25;;;-3.59;100.00
35519;BME280;21627;48.216;16.482;2022-12-18T01:43:57;101440.22;;;-3.65;100.00
35519;BME280;21627;48.216;16.482;2022-12-18T01:46:26;101435.50;;;-3.71;100.00
35519;BME280;21627;48.216;16.482;2022-12-18T01:49:02;101444.75;;;-3.71;100.00
35519;BME280;21627;48.216;16.482;2022-12-18T01:51:30;101448.66;;;-3.75;100.00
35519;BME280;21627;48.216;16.482;2022-12-18T01:53:58;101445.09;;;-3.87;100.00
35519;BME280;21627;48.216;16.482;2022-12-18T01:56:26;101450.66;;;-3.81;100.00
35519;BME280;21627;48.216;16.482;2022-12-18T01:59:00;101448.91;;;-3.82;100.00
35519;BME280;21627;48.216;16.482;2022-12-18T02:01:31;101432.56;;;-3.96;100.00
35519;BME280;21627;48.216;16.482;2022-12-18T02:04:26;101439.16;;;-3.98;100.00
35519;BME280;21627;48.216;16.482;2022-12-18T02:10:00;101456.19;;;-3.95;100.00
35519;BME280;21627;48.216;16.482;2022-12-18T02:18:41;101460.22;;;-3.97;100.00
35519;BME280;21627;48.216;16.482;2022-12-18T02:21:49;101460.72;;;-4.01;100.00
35519;BME280;21627;48.216;16.482;2022-12-18T02:24:45;101467.25;;;-4.03;100.00
35519;BME280;21627;48.216;16.482;2022-12-18T02:27:19;101453.72;;;-4.14;100.00
35519;BME280;21627;48.216;16.482;2022-12-18T02:29:50;101471.19;;;-4.07;100.00
35519;BME280;21627;48.216;16.482;2022-12-18T02:32:38;101467.63;;;-4.09;100.00
35519;BME280;21627;48.216;16.482;2022-12-18T02:35:15;101468.88;;;-4.14;100.00
35519;BME280;21627;48.216;16.482;2022-12-18T02:37:45;101472.78;;;-4.18;100.00
35519;BME280;21627;48.216;16.482;2022-12-18T02:40:15;101482.03;;;-4.18;100.00
35519;BME280;21627;48.216;16.482;2022-12-18T02:42:44;101475.94;;;-4.20;100.00
35519;BME280;21627;48.216;16.482;2022-12-18T02:45:11;101472.75;;;-4.28;100.00
35519;BME280;21627;48.216;16.482;2022-12-18T02:47:42;101488.16;;;-4.25;100.00
35519;BME280;21627;48.216;16.482;2022-12-18T02:50:24;101477.25;;;-4.34;100.00
35519;BME280;21627;48.216;16.482;2022-12-18T02:56:15;101495.19;;;-4.31;100.00
35519;BME280;21627;48.216;16.482;2022-12-18T02:59:05;101502.38;;;-4.36;100.00
35519;BME280;21627;48.216;16.482;2022-12-18T03:04:38;101486.16;;;-4.48;100.00
35519;BME280;21627;48.216;16.482;2022-12-18T03:07:15;101508.38;;;-4.44;100.00
35519;BME280;21627;48.216;16.482;2022-12-18T03:09:46;101503.34;;;-4.44;100.00
35519;BME280;21627;48.216;16.482;2022-12-18T03:12:32;101485.50;;;-4.55;100.00
35519;BME280;21627;48.216;16.482;2022-12-18T03:15:18;101498.38;;;-4.52;100.00
35519;BME280;21627;48.216;16.482;2022-12-18T03:18:01;101504.97;;;-4.44;100.00
35519;BME280;21627;48.216;16.482;2022-12-18T03:20:32;101494.72;;;-4.56;100.00
35519;BME280;21627;48.216;16.482;2022-12-18T03:23:14;101492.38;;;-4.63;100.00
35519;BME280;21627;48.216;16.482;2022-12-18T03:25:44;101504.03;;;-4.55;100.00
35519;BME280;21627;48.216;16.482;2022-12-18T03:28:16;101512.38;;;-4.56;100.00
35519;BME280;21627;48.216;16.482;2022-12-18T03:30:50;101505.13;;;-4.62;100.00
35519;BME280;21627;48.216;16.482;2022-12-18T03:33:27;101491.72;;;-4.71;100.00
35519;BME280;21627;48.216;16.482;2022-12-18T03:35:56;101489.03;;;-4.72;100.00
35519;BME280;21627;48.216;16.482;2022-12-18T03:38:23;101508.41;;;-4.63;100.00
35519;BME280;21627;48.216;16.482;2022-12-18T03:41:01;101505.63;;;-4.66;100.00
35519;BME280;21627;48.216;16.482;2022-12-18T03:46:36;101510.00;;;-4.73;100.00
35519;BME280;21627;48.216;16.482;2022-12-18T03:52:30;101481.47;;;-4.91;100.00
35519;BME280;21627;48.216;16.482;2022-12-18T03:55:01;101507.06;;;-4.78;100.00
35519;BME280;21627;48.216;16.482;2022-12-18T03:57:31;101496.63;;;-4.91;100.00
35519;BME280;21627;48.216;16.482;2022-12-18T04:00:08;101512.28;;;-4.85;100.00
35519;BME280;21627;48.216;16.482;2022-12-18T04:02:39;101517.34;;;-4.85;100.00
35519;BME280;21627;48.216;16.482;2022-12-18T04:05:10;101524.03;;;-4.86;100.00
35519;BME280;21627;48.216;16.482;2022-12-18T04:07:38;101523.16;;;-4.86;100.00
35519;BME280;21627;48.216;16.482;2022-12-18T04:10:07;101530.56;;;-4.88;100.00
35519;BME280;21627;48.216;16.482;2022-12-18T04:12:37;101530.16;;;-4.92;100.00
35519;BME280;21627;48.216;16.482;2022-12-18T04:15:06;101512.56;;;-5.01;100.00
35519;BME280;21627;48.216;16.482;2022-12-18T04:17:33;101534.91;;;-4.95;100.00
35519;BME280;21627;48.216;16.482;2022-12-18T04:20:01;101524.25;;;-5.02;100.00
35519;BME280;21627;48.216;16.482;2022-12-18T04:22:28;101529.88;;;-4.95;100.00
35519;BME280;21627;48.216;16.482;2022-12-18T04:24:58;101534.03;;;-4.96;100.00
35519;BME280;21627;48.216;16.482;2022-12-18T04:27:25;101525.78;;;-5.04;100.00
35519;BME280;21627;48.216;16.482;2022-12-18T04:29:52;101530.69;;;-5.05;100.00
35519;BME280;21627;48.216;16.482;2022-12-18T04:32:19;101551.28;;;-5.01;100.00
35519;BME280;21627;48.216;16.482;2022-12-18T04:34:46;101529.81;;;-5.14;100.00
35519;BME280;21627;48.216;16.482;2022-12-18T04:37:14;101550.56;;;-5.08;100.00
35519;BME280;21627;48.216;16.482;2022-12-18T04:39:41;101554.25;;;-5.05;100.00
35519;BME280;21627;48.216;16.482;2022-12-18T04:42:08;101551.13;;;-5.02;100.00
35519;BME280;21627;48.216;16.482;2022-12-18T04:44:36;101567.91;;;-5.03;100.00
35519;BME280;21627;48.216;16.482;2022-12-18T04:47:03;101554.31;;;-5.13;100.00
35519;BME280;21627;48.216;16.482;2022-12-18T04:49:30;101545.09;;;-5.13;100.00
35519;BME280;21627;48.216;16.482;2022-12-18T04:51:57;101562.31;;;-5.09;100.00
35519;BME280;21627;48.216;16.482;2022-12-18T04:54:25;101562.34;;;-5.17;100.00
35519;BME280;21627;48.216;16.482;2022-12-18T04:56:52;101561.72;;;-5.15;100.00
35519;BME280;21627;48.216;16.482;2022-12-18T04:59:20;101561.47;;;-5.27;100.00
35519;BME280;21627;48.216;16.482;2022-12-18T05:01:47;101552.47;;;-5.33;100.00
35519;BME280;21627;48.216;16.482;2022-12-18T05:04:14;101580.59;;;-5.20;100.00
35519;BME280;21627;48.216;16.482;2022-12-18T05:06:41;101589.38;;;-5.25;100.00
35519;BME280;21627;48.216;16.482;2022-12-18T05:09:08;101599.44;;;-5.25;100.00
35519;BME280;21627;48.216;16.482;2022-12-18T05:11:36;101592.53;;;-5.36;100.00
35519;BME280;21627;48.216;16.482;2022-12-18T05:14:03;101609.88;;;-5.31;100.00
35519;BME280;21627;48.216;16.482;2022-12-18T05:16:30;101589.59;;;-5.41;100.00
35519;BME280;21627;48.216;16.482;2022-12-18T05:18:58;101608.41;;;-5.37;100.00
35519;BME280;21627;48.216;16.482;2022-12-18T05:21:25;101595.06;;;-5.45;100.00
35519;BME280;21627;48.216;16.482;2022-12-18T05:23:52;101616.72;;;-5.38;100.00
35519;BME280;21627;48.216;16.482;2022-12-18T05:26:19;101599.28;;;-5.54;100.00
35519;BME280;21627;48.216;16.482;2022-12-18T05:28:46;101612.59;;;-5.47;100.00
35519;BME280;21627;48.216;16.482;2022-12-18T05:31:14;101593.94;;;-5.57;100.00
35519;BME280;21627;48.216;16.482;2022-12-18T05:33:41;101612.28;;;-5.50;100.00
35519;BME280;21627;48.216;16.482;2022-12-18T05:36:10;101613.81;;;-5.52;100.00
35519;BME280;21627;48.216;16.482;2022-12-18T05:38:39;101605.50;;;-5.59;100.00
35519;BME280;21627;48.216;16.482;2022-12-18T05:41:07;101615.00;;;-5.57;100.00
35519;BME280;21627;48.216;16.482;2022-12-18T05:43:39;101626.56;;;-5.59;100.00
35519;BME280;21627;48.216;16.482;2022-12-18T05:46:14;101615.88;;;-5.65;100.00
35519;BME280;21627;48.216;16.482;2022-12-18T05:48:43;101617.09;;;-5.70;100.00
35519;BME280;21627;48.216;16.482;2022-12-18T05:51:15;101603.91;;;-5.76;100.00
35519;BME280;21627;48.216;16.482;2022-12-18T05:53:43;101606.28;;;-5.78;100.00
35519;BME280;21627;48.216;16.482;2022-12-18T05:56:19;101613.84;;;-5.78;100.00
35519;BME280;21627;48.216;16.482;2022-12-18T05:58:47;101600.41;;;-5.87;100.00
35519;BME280;21627;48.216;16.482;2022-12-18T06:01:22;101605.88;;;-5.91;100.00
35519;BME280;21627;48.216;16.482;2022-12-18T06:03:50;101631.03;;;-5.82;100.00
35519;BME280;21627;48.216;16.482;2022-12-18T06:06:26;101626.59;;;-5.85;100.00
35519;BME280;21627;48.216;16.482;2022-12-18T06:08:56;101610.34;;;-5.97;100.00
35519;BME280;21627;48.216;16.482;2022-12-18T06:11:26;101628.69;;;-5.90;100.00
35519;BME280;21627;48.216;16.482;2022-12-18T06:13:56;101630.66;;;-5.96;100.00
35519;BME280;21627;48.216;16.482;2022-12-18T06:16:28;101637.56;;;-5.93;100.00
35519;BME280;21627;48.216;16.482;2022-12-18T06:19:00;101636.56;;;-5.95;100.00
35519;BME280;21627;48.216;16.482;2022-12-18T06:21:29;101647.38;;;-5.96;100.00
35519;BME280;21627;48.216;16.482;2022-12-18T06:23:57;101648.28;;;-5.96;100.00
35519;BME280;21627;48.216;16.482;2022-12-18T06:26:25;101645.19;;;-6.02;100.00
35519;BME280;21627;48.216;16.482;2022-12-18T06:28:54;101668.25;;;-5.97;100.00
35519;BME280;21627;48.216;16.482;2022-12-18T06:31:21;101674.34;;;-5.95;100.00
35519;BME280;21627;48.216;16.482;2022-12-18T06:33:49;101656.28;;;-6.08;100.00
35519;BME280;21627;48.216;16.482;2022-12-18T06:36:16;101655.22;;;-6.11;100.00
35519;BME280;21627;48.216;16.482;2022-12-18T06:38:44;101665.75;;;-6.06;100.00
35519;BME280;21627;48.216;16.482;2022-12-18T06:41:15;101666.06;;;-6.12;100.00
35519;BME280;21627;48.216;16.482;2022-12-18T06:43:43;101675.22;;;-6.03;100.00
35519;BME280;21627;48.216;16.482;2022-12-18T06:46:11;101669.75;;;-6.08;100.00
35519;BME280;21627;48.216;16.482;2022-12-18T06:48:39;101646.50;;;-6.23;100.00
35519;BME280;21627;48.216;16.482;2022-12-18T06:51:06;101665.91;;;-6.04;100.00
35519;BME280;21627;48.216;16.482;2022-12-18T06:53:33;101658.81;;;-6.17;100.00
35519;BME280;21627;48.216;16.482;2022-12-18T06:56:07;101669.28;;;-6.13;100.00
35519;BME280;21627;48.216;16.482;2022-12-18T06:58:40;101677.75;;;-6.12;100.00
35519;BME280;21627;48.216;16.482;2022-12-18T07:01:10;101682.34;;;-6.08;100.00
35519;BME280;21627;48.216;16.482;2022-12-18T07:03:39;101688.41;;;-6.06;100.00
35519;BME280;21627;48.216;16.482;2022-12-18T07:06:15;101692.44;;;-5.99;100.00
35519;BME280;21627;48.216;16.482;2022-12-18T07:08:44;101694.78;;;-6.01;100.00
35519;BME280;21627;48.216;16.482;2022-12-18T07:11:11;101688.72;;;-6.03;100.00
35519;BME280;21627;48.216;16.482;2022-12-18T07:13:39;101699.66;;;-6.02;100.00
35519;BME280;21627;48.216;16.482;2022-12-18T07:16:14;101693.91;;;-6.01;100.00
35519;BME280;21627;48.216;16.482;2022-12-18T07:18:50;101722.75;;;-5.89;100.00
35519;BME280;21627;48.216;16.482;2022-12-18T07:21:19;101711.41;;;-5.94;100.00
35519;BME280;21627;48.216;16.482;2022-12-18T07:23:47;101727.22;;;-5.87;100.00
35519;BME280;21627;48.216;16.482;2022-12-18T07:26:18;101734.47;;;-5.81;100.00
35519;BME280;21627;48.216;16.482;2022-12-18T07:28:45;101718.03;;;-5.86;100.00
35519;BME280;21627;48.216;16.482;2022-12-18T07:31:20;101742.94;;;-5.72;100.00
35519;BME280;21627;48.216;16.482;2022-12-18T07:33:49;101737.41;;;-5.68;100.00
35519;BME280;21627;48.216;16.482;2022-12-18T07:36:17;101745.28;;;-5.65;100.00
35519;BME280;21627;48.216;16.482;2022-12-18T07:38:48;101720.53;;;-5.69;100.00
35519;BME280;21627;48.216;16.482;2022-12-18T07:41:17;101727.19;;;-5.60;100.00
35519;BME280;21627;48.216;16.482;2022-12-18T07:43:46;101758.03;;;-5.46;100.00
35519;BME280;21627;48.216;16.482;2022-12-18T07:46:14;101757.72;;;-5.40;100.00
35519;BME280;21627;48.216;16.482;2022-12-18T07:48:42;101730.75;;;-5.50;100.00
35519;BME280;21627;48.216;16.482;2022-12-18T07:51:16;101741.56;;;-5.33;100.00
35519;BME280;21627;48.216;16.482;2022-12-18T07:53:47;101745.13;;;-5.31;100.00
35519;BME280;21627;48.216;16.482;2022-12-18T07:56:19;101768.22;;;-5.18;100.00
35519;BME280;21627;48.216;16.482;2022-12-18T07:58:57;101762.59;;;-5.15;100.00
35519;BME280;21627;48.216;16.482;2022-12-18T08:01:24;101761.38;;;-5.10;100.00
35519;BME280;21627;48.216;16.482;2022-12-18T08:03:55;101759.47;;;-5.13;100.00
35519;BME280;21627;48.216;16.482;2022-12-18T08:06:22;101774.41;;;-4.97;100.00
35519;BME280;21627;48.216;16.482;2022-12-18T08:08:55;101774.41;;;-4.97;100.00
35519;BME280;21627;48.216;16.482;2022-12-18T08:11:24;101789.66;;;-4.78;100.00
35519;BME280;21627;48.216;16.482;2022-12-18T08:13:53;101774.22;;;-4.81;100.00
35519;BME280;21627;48.216;16.482;2022-12-18T08:16:21;101792.56;;;-4.65;100.00
35519;BME280;21627;48.216;16.482;2022-12-18T08:18:49;101790.75;;;-4.57;100.00
35519;BME280;21627;48.216;16.482;2022-12-18T08:21:24;101788.81;;;-4.51;100.00
35519;BME280;21627;48.216;16.482;2022-12-18T08:23:54;101786.69;;;-4.46;100.00
35519;BME280;21627;48.216;16.482;2022-12-18T08:26:24;101787.97;;;-4.32;100.00
35519;BME280;21627;48.216;16.482;2022-12-18T08:28:55;101791.03;;;-4.18;100.00
35519;BME280;21627;48.216;16.482;2022-12-18T08:31:23;101797.22;;;-4.05;100.00
35519;BME280;21627;48.216;16.482;2022-12-18T08:33:52;101793.59;;;-3.99;100.00
35519;BME280;21627;48.216;16.482;2022-12-18T08:36:22;101792.16;;;-3.86;100.00
35519;BME280;21627;48.216;16.482;2022-12-18T08:38:51;101787.53;;;-3.82;100.00
35519;BME280;21627;48.216;16.482;2022-12-18T08:41:20;101783.31;;;-3.73;100.00
35519;BME280;21627;48.216;16.482;2022-12-18T08:43:47;101779.94;;;-3.63;100.00
35519;BME280;21627;48.216;16.482;2022-12-18T08:46:38;101779.53;;;-3.49;100.00
35519;BME280;21627;48.216;16.482;2022-12-18T08:49:07;101778.56;;;-3.40;100.00
35519;BME280;21627;48.216;16.482;2022-12-18T08:51:35;101787.34;;;-3.37;100.00
35519;BME280;21627;48.216;16.482;2022-12-18T08:54:04;101804.31;;;-3.26;100.00
35519;BME280;21627;48.216;16.482;2022-12-18T08:56:32;101800.50;;;-3.12;100.00
35519;BME280;21627;48.216;16.482;2022-12-18T08:59:00;101792.34;;;-3.18;100.00
35519;BME280;21627;48.216;16.482;2022-12-18T09:01:28;101798.50;;;-3.06;100.00
35519;BME280;21627;48.216;16.482;2022-12-18T09:03:55;101805.41;;;-2.94;100.00
35519;BME280;21627;48.216;16.482;2022-12-18T09:06:23;101810.34;;;-2.86;100.00
35519;BME280;21627;48.216;16.482;2022-12-18T09:08:50;101809.97;;;-2.80;100.00
35519;BME280;21627;48.216;16.482;2022-12-18T09:11:22;101819.50;;;-2.77;100.00
35519;BME280;21627;48.216;16.482;2022-12-18T09:13:50;101801.25;;;-2.84;100.00
35519;BME280;21627;48.216;16.482;2022-12-18T09:16:18;101820.91;;;-2.71;100.00
35519;BME280;21627;48.216;16.482;2022-12-18T09:18:47;101801.66;;;-2.79;100.00
35519;BME280;21627;48.216;16.482;2022-12-18T09:21:20;101816.09;;;-2.68;100.00
35519;BME280;21627;48.216;16.482;2022-12-18T09:23:52;101827.00;;;-2.69;100.00
35519;BME280;21627;48.216;16.482;2022-12-18T09:26:20;101826.38;;;-2.66;100.00
35519;BME280;21627;48.216;16.482;2022-12-18T09:28:48;101822.34;;;-2.64;100.00
35519;BME280;21627;48.216;16.482;2022-12-18T09:31:18;101830.81;;;-2.64;100.00
35519;BME280;21627;48.216;16.482;2022-12-18T09:33:46;101830.63;;;-2.46;100.00
35519;BME280;21627;48.216;16.482;2022-12-18T09:36:16;101815.44;;;-2.46;100.00
35519;BME280;21627;48.216;16.482;2022-12-18T09:38:44;101828.22;;;-2.34;100.00
35519;BME280;21627;48.216;16.482;2022-12-18T09:41:45;101822.31;;;-2.25;100.00
35519;BME280;21627;48.216;16.482;2022-12-18T09:44:17;101821.16;;;-2.28;100.00
35519;BME280;21627;48.216;16.482;2022-12-18T09:46:56;101813.41;;;-2.30;100.00
35519;BME280;21627;48.216;16.482;2022-12-18T09:49:29;101811.91;;;-2.28;100.00
35519;BME280;21627;48.216;16.482;2022-12-18T09:52:11;101823.59;;;-2.09;100.00
35519;BME280;21627;48.216;16.482;2022-12-18T09:54:43;101812.72;;;-1.98;100.00
35519;BME280;21627;48.216;16.482;2022-12-18T09:57:21;101793.47;;;-1.96;100.00
35519;BME280;21627;48.216;16.482;2022-12-18T10:00:21;101782.44;;;-1.97;100.00
35519;BME280;21627;48.216;16.482;2022-12-18T10:02:52;101796.63;;;-1.99;100.00
35519;BME280;21627;48.216;16.482;2022-12-18T10:11:13;101807.16;;;-1.73;99.04
35519;BME280;21627;48.216;16.482;2022-12-18T10:13:57;101794.56;;;-1.72;98.60
35519;BME280;21627;48.216;16.482;2022-12-18T10:16:41;101789.38;;;-1.63;97.10
35519;BME280;21627;48.216;16.482;2022-12-18T10:27:39;101796.84;;;-1.55;99.00
35519;BME280;21627;48.216;16.482;2022-12-18T10:30:17;101786.84;;;-1.53;98.34
35519;BME280;21627;48.216;16.482;2022-12-18T10:32:44;101760.94;;;-1.59;97.46
35519;BME280;21627;48.216;16.482;2022-12-18T10:35:23;101789.47;;;-1.52;97.84
35519;BME280;21627;48.216;16.482;2022-12-18T10:40:57;101784.06;;;-1.56;97.67
35519;BME280;21627;48.216;16.482;2022-12-18T10:43:37;101792.03;;;-1.62;97.10
35519;BME280;21627;48.216;16.482;2022-12-18T10:51:35;101783.91;;;-1.58;96.77
35519;BME280;21627;48.216;16.482;2022-12-18T10:54:12;101782.50;;;-1.54;97.47
35519;BME280;21627;48.216;16.482;2022-12-18T10:56:41;101773.13;;;-1.55;97.97
35519;BME280;21627;48.216;16.482;2022-12-18T10:59:16;101767.84;;;-1.68;96.70
35519;BME280;21627;48.216;16.482;2022-12-18T11:01:56;101755.16;;;-1.68;97.70
35519;BME280;21627;48.216;16.482;2022-12-18T11:04:31;101766.16;;;-1.58;97.23
35519;BME280;21627;48.216;16.482;2022-12-18T11:07:04;101775.91;;;-1.52;96.36
35519;BME280;21627;48.216;16.482;2022-12-18T11:09:40;101754.88;;;-1.71;96.14
35519;BME280;21627;48.216;16.482;2022-12-18T11:12:18;101771.63;;;-1.63;96.32
35519;BME280;21627;48.216;16.482;2022-12-18T11:14:54;101768.97;;;-1.65;97.10
35519;BME280;21627;48.216;16.482;2022-12-18T11:17:33;101756.44;;;-1.73;96.79
35519;BME280;21627;48.216;16.482;2022-12-18T11:20:23;101749.72;;;-1.73;97.53
35519;BME280;21627;48.216;16.482;2022-12-18T11:23:04;101752.56;;;-1.48;95.45
35519;BME280;21627;48.216;16.482;2022-12-18T11:25:33;101759.84;;;-1.63;95.32
35519;BME280;21627;48.216;16.482;2022-12-18T11:31:23;101768.56;;;-1.59;98.88
35519;BME280;21627;48.216;16.482;2022-12-18T11:34:01;101755.00;;;-1.60;98.41
35519;BME280;21627;48.216;16.482;2022-12-18T11:36:49;101774.91;;;-1.64;97.91
35519;BME280;21627;48.216;16.482;2022-12-18T11:39:37;101775.19;;;-1.61;96.39
35519;BME280;21627;48.216;16.482;2022-12-18T11:42:25;101768.09;;;-1.65;94.12
35519;BME280;21627;48.216;16.482;2022-12-18T11:50:26;101750.09;;;-1.79;96.51
35519;BME280;21627;48.216;16.482;2022-12-18T11:52:55;101761.50;;;-1.73;97.46
35519;BME280;21627;48.216;16.482;2022-12-18T11:55:47;101750.44;;;-1.74;98.01
35519;BME280;21627;48.216;16.482;2022-12-18T12:01:24;101753.91;;;-1.73;99.98
35519;BME280;21627;48.216;16.482;2022-12-18T12:06:53;101738.94;;;-1.81;100.00
35519;BME280;21627;48.216;16.482;2022-12-18T12:21:40;101758.34;;;-1.81;98.97
35519;BME280;21627;48.216;16.482;2022-12-18T12:27:27;101749.59;;;-1.85;99.89
35519;BME280;21627;48.216;16.482;2022-12-18T12:32:54;101746.53;;;-1.70;100.00
35519;BME280;21627;48.216;16.482;2022-12-18T12:38:14;101747.41;;;-1.70;98.72
35519;BME280;21627;48.216;16.482;2022-12-18T12:40:56;101731.56;;;-1.67;98.59
35519;BME280;21627;48.216;16.482;2022-12-18T12:46:11;101735.88;;;-1.87;98.46
35519;BME280;21627;48.216;16.482;2022-12-18T12:48:47;101729.28;;;-1.85;100.00
35519;BME280;21627;48.216;16.482;2022-12-18T12:53:49;101709.56;;;-1.89;100.00
35519;BME280;21627;48.216;16.482;2022-12-18T12:56:19;101723.22;;;-1.87;100.00
35519;BME280;21627;48.216;16.482;2022-12-18T12:59:14;101739.44;;;-1.75;100.00
35519;BME280;21627;48.216;16.482;2022-12-18T13:07:37;101745.28;;;-1.86;100.00
35519;BME280;21627;48.216;16.482;2022-12-18T13:16:03;101744.41;;;-1.97;100.00
35519;BME280;21627;48.216;16.482;2022-12-18T13:18:32;101750.38;;;-1.96;100.00
35519;BME280;21627;48.216;16.482;2022-12-18T13:21:29;101735.16;;;-1.96;100.00
35519;BME280;21627;48.216;16.482;2022-12-18T13:24:20;101761.53;;;-1.94;100.00
35519;BME280;21627;48.216;16.482;2022-12-18T13:26:50;101762.78;;;-1.89;100.00
35519;BME280;21627;48.216;16.482;2022-12-18T13:29:46;101766.94;;;-2.00;100.00
35519;BME280;21627;48.216;16.482;2022-12-18T13:32:24;101767.34;;;-2.05;100.00
35519;BME280;21627;48.216;16.482;2022-12-18T13:37:52;101743.75;;;-2.14;100.00
35519;BME280;21627;48.216;16.482;2022-12-18T13:48:37;101776.22;;;-2.10;100.00
35519;BME280;21627;48.216;16.482;2022-12-18T13:51:10;101757.69;;;-2.20;100.00
35519;BME280;21627;48.216;16.482;2022-12-18T13:53:53;101758.22;;;-2.24;100.00
35519;BME280;21627;48.216;16.482;2022-12-18T13:56:28;101773.28;;;-2.15;100.00
35519;BME280;21627;48.216;16.482;2022-12-18T13:59:25;101771.63;;;-2.04;100.00
35519;BME280;21627;48.216;16.482;2022-12-18T14:02:00;101776.84;;;-2.03;100.00
35519;BME280;21627;48.216;16.482;2022-12-18T14:04:35;101776.44;;;-2.07;100.00
35519;BME280;21627;48.216;16.482;2022-12-18T14:07:17;101756.41;;;-2.25;100.00
35519;BME280;21627;48.216;16.482;2022-12-18T14:09:50;101773.91;;;-2.18;100.00
35519;BME280;21627;48.216;16.482;2022-12-18T14:12:29;101766.06;;;-2.31;100.00
35519;BME280;21627;48.216;16.482;2022-12-18T14:15:42;101784.19;;;-2.26;100.00
35519;BME280;21627;48.216;16.482;2022-12-18T14:21:26;101797.59;;;-2.17;100.00
35519;BME280;21627;48.216;16.482;2022-12-18T14:24:14;101801.78;;;-2.28;100.00
35519;BME280;21627;48.216;16.482;2022-12-18T14:26:47;101787.59;;;-2.36;100.00
35519;BME280;21627;48.216;16.482;2022-12-18T14:32:10;101801.13;;;-2.35;100.00
35519;BME280;21627;48.216;16.482;2022-12-18T14:34:48;101807.22;;;-2.33;100.00
35519;BME280;21627;48.216;16.482;2022-12-18T14:37:21;101790.59;;;-2.40;100.00
35519;BME280;21627;48.216;16.482;2022-12-18T14:40:00;101796.69;;;-2.48;100.00
35519;BME280;21627;48.216;16.482;2022-12-18T14:42:36;101800.97;;;-2.47;100.00
35519;BME280;21627;48.216;16.482;2022-12-18T14:45:36;101805.31;;;-2.46;100.00
35519;BME280;21627;48.216;16.482;2022-12-18T14:50:42;101810.13;;;-2.39;100.00
35519;BME280;21627;48.216;16.482;2022-12-18T14:53:26;101813.03;;;-2.34;100.00
35519;BME280;21627;48.216;16.482;2022-12-18T14:55:56;101810.00;;;-2.41;100.00